Time;durP1;ratioP1;P1;durP2;ratioP2;P2;SDS_P1;SDS_P2;PMS_P1;PMS_P2;Temp;Humidity;BMP_temperature;BMP_pressure;BME280_temperature;BME280_humidity;BME280_pressure;Samples;Min_cycle;Max_cycle;Signal;HPM_P1;HPM_P2
2022/06/06 00:02:04;;;;;;;53.53;36.23;;;;;;;-150.27;100.00;61272.81;5189451;28;20026;-74
2022/06/06 00:04:36;;;;;;;54.77;36.17;;;;;;;-150.27;100.00;61272.81;5189764;28;20058;-74
2022/06/06 00:07:07;;;;;;;53.93;37.20;;;;;;;-150.27;100.00;61272.81;5190539;28;20072;-73
2022/06/06 00:09:39;;;;;;;54.13;34.93;;;;;;;-150.27;100.00;61272.81;5191906;28;20038;-74
2022/06/06 00:12:10;;;;;;;49.93;35.63;;;;;;;-150.27;100.00;61272.81;5190830;28;20044;-74
2022/06/06 00:14:43;;;;;;;52.13;34.57;;;;;;;-150.27;100.00;61272.81;5191455;28;20463;-73
2022/06/06 00:17:14;;;;;;;51.00;34.13;;;;;;;-150.27;100.00;61272.81;5190914;28;20026;-73
2022/06/06 00:19:45;;;;;;;53.10;34.03;;;;;;;-150.27;100.00;61272.81;5188793;28;20033;-73
2022/06/06 00:22:17;;;;;;;57.17;35.23;;;;;;;-150.27;100.00;61272.81;5190723;28;20034;-74
2022/06/06 00:24:48;;;;;;;51.30;32.63;;;;;;;-150.27;100.00;61272.81;5190808;28;20019;-73
2022/06/06 00:27:19;;;;;;;47.80;32.20;;;;;;;-150.27;100.00;61272.81;5190791;28;20034;-73
2022/06/06 00:29:53;;;;;;;47.67;33.00;;;;;;;-150.27;100.00;61272.81;5191106;28;20049;-73
2022/06/06 00:35:16;;;;;;;51.73;32.97;;;;;;;-150.27;100.00;61272.81;5189507;28;20038;-73
2022/06/06 00:37:48;;;;;;;52.90;34.27;;;;;;;-150.27;100.00;61272.81;5191029;28;20034;-74
2022/06/06 00:40:22;;;;;;;51.13;32.97;;;;;;;-150.27;100.00;61272.81;5189193;28;20022;-73
2022/06/06 00:42:53;;;;;;;56.40;33.03;;;;;;;-150.27;100.00;61272.81;5190513;28;20033;-73
2022/06/06 00:45:24;;;;;;;51.20;32.40;;;;;;;-150.27;100.00;61272.81;5192121;28;20031;-73
2022/06/06 00:48:08;;;;;;;46.43;30.53;;;;;;;-150.27;100.00;61272.81;5190172;28;20027;-73
2022/06/06 00:50:57;;;;;;;53.60;34.40;;;;;;;-150.27;100.00;61272.81;5190271;28;20026;-74
2022/06/06 00:53:44;;;;;;;48.97;32.47;;;;;;;-150.27;100.00;61272.81;5189472;28;20281;-73
2022/06/06 00:56:38;;;;;;;49.20;33.20;;;;;;;-150.27;100.00;61272.81;5189704;28;20680;-74
2022/06/06 00:59:13;;;;;;;53.43;33.73;;;;;;;-150.27;100.00;61272.81;5190123;28;20022;-73
2022/06/06 01:01:44;;;;;;;51.10;33.53;;;;;;;-150.27;100.00;61272.81;5190175;28;20050;-73
2022/06/06 01:04:17;;;;;;;53.50;34.17;;;;;;;-150.27;100.00;61272.81;5212729;22;20053;-74
2022/06/06 01:06:48;;;;;;;54.93;36.13;;;;;;;-150.27;100.00;61272.81;5224598;28;20061;-74
2022/06/06 01:09:23;;;;;;;58.30;36.23;;;;;;;-150.27;100.00;61272.81;5229874;28;20052;-74
2022/06/06 01:12:02;;;;;;;58.37;37.87;;;;;;;-150.27;100.00;61272.81;5231589;28;20028;-74
2022/06/06 01:14:41;;;;;;;58.60;39.90;;;;;;;-150.27;100.00;61272.81;5231694;28;20018;-74
2022/06/06 01:17:31;;;;;;;56.77;38.20;;;;;;;-150.27;100.00;61272.81;5230636;28;20033;-74
2022/06/06 01:20:27;;;;;;;63.40;41.73;;;;;;;-150.27;100.00;61272.81;5230059;28;20032;-74
2022/06/06 01:23:31;;;;;;;62.83;42.00;;;;;;;-150.27;100.00;61272.81;5231262;28;20034;-73
2022/06/06 01:26:20;;;;;;;61.80;42.20;;;;;;;-150.27;100.00;61272.81;5228800;28;20064;-74
2022/06/06 01:29:13;;;;;;;66.27;43.57;;;;;;;-150.27;100.00;61272.81;5229582;28;20576;-73
2022/06/06 01:31:48;;;;;;;65.87;45.10;;;;;;;-150.27;100.00;61272.81;5231334;28;20033;-73
2022/06/06 01:34:24;;;;;;;61.80;42.73;;;;;;;-150.27;100.00;61272.81;5228341;28;20044;-74
2022/06/06 01:36:57;;;;;;;62.87;42.67;;;;;;;-150.27;100.00;61272.81;5230312;28;20052;-73
2022/06/06 01:39:31;;;;;;;60.40;42.23;;;;;;;-150.27;100.00;61272.81;5234540;28;20111;-73
2022/06/06 01:42:32;;;;;;;56.90;39.88;;;;;;;-150.27;100.00;61272.81;5231919;28;20021;-73
2022/06/06 01:45:16;;;;;;;56.80;39.97;;;;;;;-150.27;100.00;61272.81;5229666;28;20380;-73
2022/06/06 01:47:56;;;;;;;55.45;40.47;;;;;;;-150.27;100.00;61272.81;5230820;28;20025;-73
2022/06/06 01:50:30;;;;;;;51.87;39.27;;;;;;;-150.27;100.00;61272.81;5229952;28;20033;-73
2022/06/06 01:53:05;;;;;;;57.22;37.70;;;;;;;-150.27;100.00;61272.81;5231367;28;20121;-73
2022/06/06 01:55:39;;;;;;;52.73;37.97;;;;;;;-150.27;100.00;61272.81;5231405;28;20357;-74
2022/06/06 01:58:16;;;;;;;54.20;36.63;;;;;;;-150.27;100.00;61272.81;5229739;28;20040;-73
2022/06/06 02:00:47;;;;;;;45.07;33.63;;;;;;;-150.27;100.00;61272.81;5233455;28;20025;-73
2022/06/06 02:03:20;;;;;;;44.57;32.33;;;;;;;-150.27;100.00;61272.81;5229681;28;20033;-73
2022/06/06 02:05:51;;;;;;;49.30;34.53;;;;;;;-150.27;100.00;61272.81;5229233;28;20025;-73
2022/06/06 02:08:23;;;;;;;41.37;29.57;;;;;;;-150.27;100.00;61272.81;5233731;28;20768;-74
2022/06/06 02:10:54;;;;;;;43.67;30.00;;;;;;;-150.27;100.00;61272.81;5230372;28;20026;-74
2022/06/06 02:13:26;;;;;;;44.23;29.93;;;;;;;-150.27;100.00;61272.81;5230654;28;20464;-73
2022/06/06 02:15:58;;;;;;;42.63;31.77;;;;;;;-150.27;100.00;61272.81;5228046;28;20035;-74
2022/06/06 02:18:29;;;;;;;40.33;28.83;;;;;;;-150.27;100.00;61272.81;5229372;28;20600;-73
2022/06/06 02:21:03;;;;;;;44.53;29.30;;;;;;;-150.27;100.00;61272.81;5229446;28;20476;-73
2022/06/06 02:23:35;;;;;;;39.67;26.92;;;;;;;-150.27;100.00;61272.81;5230018;28;20018;-73
2022/06/06 02:26:07;;;;;;;45.83;30.00;;;;;;;-150.27;100.00;61272.81;5228079;28;20373;-74
2022/06/06 02:28:38;;;;;;;40.77;28.17;;;;;;;-150.27;100.00;61272.81;5230108;28;20041;-73
2022/06/06 02:31:11;;;;;;;43.77;30.33;;;;;;;-150.27;100.00;61272.81;5229916;28;20460;-74
2022/06/06 02:33:42;;;;;;;43.17;30.53;;;;;;;-150.27;100.00;61272.81;5228833;28;20581;-74
2022/06/06 02:36:14;;;;;;;44.27;31.50;;;;;;;-150.27;100.00;61272.81;5229356;28;20697;-73
2022/06/06 02:38:45;;;;;;;42.77;30.00;;;;;;;-150.27;100.00;61272.81;5228108;28;20161;-73
2022/06/06 02:41:17;;;;;;;42.70;30.57;;;;;;;-150.27;100.00;61272.81;5229588;28;20506;-74
2022/06/06 02:43:48;;;;;;;52.43;31.40;;;;;;;-150.27;100.00;61272.81;5229708;28;20112;-73
2022/06/06 02:46:20;;;;;;;44.60;31.70;;;;;;;-150.27;100.00;61272.81;5228753;28;20113;-73
2022/06/06 02:48:51;;;;;;;42.83;29.20;;;;;;;-150.27;100.00;61272.81;5228670;28;20033;-73
2022/06/06 02:51:22;;;;;;;43.47;31.73;;;;;;;-150.27;100.00;61272.81;5228460;28;20026;-73
2022/06/06 02:53:54;;;;;;;43.07;30.50;;;;;;;-150.27;100.00;61272.81;5229669;28;20479;-74
2022/06/06 02:56:25;;;;;;;46.73;32.10;;;;;;;-150.27;100.00;61272.81;5229070;28;20029;-74
2022/06/06 02:59:01;;;;;;;42.60;30.47;;;;;;;-150.27;100.00;61272.81;5229145;28;20025;-73
2022/06/06 03:01:33;;;;;;;44.93;30.77;;;;;;;-150.27;100.00;61272.81;5229781;28;20586;-73
2022/06/06 03:04:04;;;;;;;56.17;33.87;;;;;;;-150.27;100.00;61272.81;5226235;28;20116;-73
2022/06/06 03:07:03;;;;;;;45.83;31.13;;;;;;;-150.27;100.00;61272.81;5229390;28;20392;-73
2022/06/06 03:09:55;;;;;;;46.73;32.90;;;;;;;-150.27;100.00;61272.81;5229538;28;20029;-74
2022/06/06 03:12:34;;;;;;;48.37;32.27;;;;;;;-150.27;100.00;61272.81;5229290;28;20021;-73
2022/06/06 03:15:35;;;;;;;46.53;32.13;;;;;;;-150.27;100.00;61272.81;5228903;28;20387;-73
2022/06/06 03:21:35;;;;;;;48.97;33.30;;;;;;;-150.27;100.00;61272.81;5228340;28;20064;-73
2022/06/06 03:24:30;;;;;;;47.90;32.87;;;;;;;-150.27;100.00;61272.81;5228886;28;20022;-73
2022/06/06 03:27:24;;;;;;;41.10;29.23;;;;;;;-150.27;100.00;61272.81;5228332;28;20022;-74
2022/06/06 03:30:15;;;;;;;44.85;30.75;;;;;;;-150.27;100.00;61272.81;5228330;28;20120;-73
2022/06/06 03:33:09;;;;;;;45.50;30.47;;;;;;;-150.27;100.00;61272.81;5229491;28;20021;-73
2022/06/06 03:36:09;;;;;;;38.47;27.43;;;;;;;-150.27;100.00;61272.81;5227954;28;20026;-74
2022/06/06 03:39:06;;;;;;;42.63;28.87;;;;;;;-150.27;100.00;61272.81;5229342;28;20370;-72
2022/06/06 03:41:51;;;;;;;37.03;28.07;;;;;;;-150.27;100.00;61272.81;5228900;28;20025;-75
2022/06/06 03:44:35;;;;;;;37.97;27.30;;;;;;;-150.27;100.00;61272.81;5228714;28;20498;-74
2022/06/06 03:47:29;;;;;;;41.93;27.80;;;;;;;-150.27;100.00;61272.81;5227309;28;20039;-75
2022/06/06 03:50:29;;;;;;;39.17;27.30;;;;;;;-150.27;100.00;61272.81;5227040;28;20033;-74
2022/06/06 03:53:08;;;;;;;36.53;26.30;;;;;;;-150.27;100.00;61272.81;5227908;28;20277;-74
2022/06/06 03:56:07;;;;;;;34.50;25.23;;;;;;;-150.27;100.00;61272.81;5227623;28;20076;-76
2022/06/06 03:58:39;;;;;;;32.60;24.10;;;;;;;-150.27;100.00;61272.81;5228847;28;20036;-74
2022/06/06 04:01:13;;;;;;;33.30;25.80;;;;;;;-150.27;100.00;61272.81;5227683;28;20395;-74
2022/06/06 04:03:46;;;;;;;32.92;22.50;;;;;;;-150.27;100.00;61272.81;5226140;28;20227;-74
2022/06/06 04:06:18;;;;;;;33.50;22.87;;;;;;;-150.27;100.00;61272.81;5225884;28;20061;-75
2022/06/06 04:08:49;;;;;;;30.10;22.30;;;;;;;-150.27;100.00;61272.81;5230628;28;20037;-74
2022/06/06 04:11:29;;;;;;;34.53;23.50;;;;;;;-150.27;100.00;61272.81;5231091;28;20028;-74
2022/06/06 04:14:20;;;;;;;29.20;20.80;;;;;;;-150.27;100.00;61272.81;5231500;28;20018;-74
2022/06/06 04:17:06;;;;;;;30.13;19.40;;;;;;;-150.27;100.00;61272.81;5233228;28;20659;-74
2022/06/06 04:19:57;;;;;;;32.20;22.90;;;;;;;-150.27;100.00;61272.81;5230067;28;20108;-74
2022/06/06 04:22:42;;;;;;;27.37;20.50;;;;;;;-150.27;100.00;61272.81;5232246;28;20083;-74
2022/06/06 04:25:30;;;;;;;29.77;20.23;;;;;;;-150.27;100.00;61272.81;5232113;28;20029;-75
2022/06/06 04:28:05;;;;;;;31.00;20.50;;;;;;;-150.27;100.00;61272.81;5231878;28;20897;-74
2022/06/06 04:30:49;;;;;;;27.93;19.23;;;;;;;-150.27;100.00;61272.81;5231874;28;20065;-74
2022/06/06 04:33:30;;;;;;;27.83;18.70;;;;;;;-150.27;100.00;61272.81;5229605;28;20053;-74
2022/06/06 04:36:10;;;;;;;27.83;18.87;;;;;;;-150.27;100.00;61272.81;5232781;28;20029;-75
2022/06/06 04:38:52;;;;;;;22.40;17.30;;;;;;;-150.27;100.00;61272.81;5233868;28;20022;-74
2022/06/06 04:41:40;;;;;;;26.27;16.60;;;;;;;-150.27;100.00;61272.81;5230269;28;20033;-74
2022/06/06 04:44:17;;;;;;;21.10;17.30;;;;;;;-150.27;100.00;61272.81;5230998;28;20040;-74
2022/06/06 04:46:51;;;;;;;23.63;17.80;;;;;;;-150.27;100.00;61272.81;5232089;28;20459;-74
2022/06/06 04:49:25;;;;;;;25.92;17.58;;;;;;;-150.27;100.00;61272.81;5230182;28;20042;-74
2022/06/06 04:51:59;;;;;;;21.70;17.90;;;;;;;-150.27;100.00;61272.81;5231404;28;20032;-74
2022/06/06 04:54:32;;;;;;;20.77;16.40;;;;;;;-150.27;100.00;61272.81;5232067;28;20022;-74
2022/06/06 04:57:04;;;;;;;23.93;18.17;;;;;;;-150.27;100.00;61272.81;5231061;28;20022;-74
2022/06/06 04:59:37;;;;;;;27.07;18.57;;;;;;;-150.27;100.00;61272.81;5231807;28;20049;-75
2022/06/06 05:02:08;;;;;;;23.17;19.43;;;;;;;-150.27;100.00;61272.81;5230753;28;20029;-74
2022/06/06 05:04:40;;;;;;;24.53;19.67;;;;;;;-150.27;100.00;61272.81;5230622;28;20072;-75
2022/06/06 05:07:36;;;;;;;27.80;20.93;;;;;;;-150.27;100.00;61272.81;5230465;28;20486;-75
2022/06/06 05:10:21;;;;;;;22.13;19.47;;;;;;;-150.27;100.00;61272.81;5229769;28;20740;-74
2022/06/06 05:13:29;;;;;;;23.97;19.67;;;;;;;-150.27;100.00;61272.81;5229503;28;20033;-75
2022/06/06 05:16:10;;;;;;;24.90;19.27;;;;;;;-150.27;100.00;61272.81;5230706;28;20033;-74
2022/06/06 05:18:54;;;;;;;21.97;18.83;;;;;;;-150.27;100.00;61272.81;5230037;28;20036;-75
2022/06/06 05:21:44;;;;;;;23.80;19.50;;;;;;;-150.27;100.00;61272.81;5229856;28;20025;-76
2022/06/06 05:24:47;;;;;;;23.00;19.40;;;;;;;-150.27;100.00;61272.81;5230178;28;20104;-75
2022/06/06 05:27:30;;;;;;;20.20;18.03;;;;;;;-150.27;100.00;61272.81;5226198;28;20037;-75
2022/06/06 05:30:04;;;;;;;20.03;18.00;;;;;;;-150.27;100.00;61272.81;5229694;28;20439;-75
2022/06/06 05:32:58;;;;;;;19.55;16.63;;;;;;;-150.27;100.00;61272.81;5229259;28;20036;-75
2022/06/06 05:35:32;;;;;;;22.63;17.33;;;;;;;-150.27;100.00;61272.81;5230685;28;20028;-75
2022/06/06 05:38:21;;;;;;;;;;;;;;;-150.27;100.00;61272.81;5231243;28;20029;-75
2022/06/06 05:41:18;;;;;;;20.30;17.60;;;;;;;-150.27;100.00;61272.81;5228404;28;19913;-74
2022/06/06 05:43:56;;;;;;;18.33;16.33;;;;;;;-150.27;100.00;61272.81;5230307;28;20464;-74
2022/06/06 05:46:54;;;;;;;20.37;17.70;;;;;;;-150.27;100.00;61272.81;5230620;28;20430;-74
2022/06/06 05:49:46;;;;;;;19.27;15.13;;;;;;;-150.27;100.00;61272.81;5230237;28;20066;-75
2022/06/06 05:52:47;;;;;;;16.90;14.33;;;;;;;-150.27;100.00;61272.81;5230058;28;20381;-75
2022/06/06 05:55:37;;;;;;;20.23;14.97;;;;;;;-150.27;100.00;61272.81;5229777;28;20472;-75
2022/06/06 05:58:36;;;;;;;21.43;15.80;;;;;;;-150.27;100.00;61272.81;5230361;28;20373;-75
2022/06/06 06:01:33;;;;;;;17.10;15.30;;;;;;;-150.27;100.00;61272.81;5228684;28;20033;-74
2022/06/06 06:04:19;;;;;;;19.37;14.20;;;;;;;-150.27;100.00;61272.81;5229273;28;20049;-75
2022/06/06 06:07:25;;;;;;;17.27;15.47;;;;;;;-150.27;100.00;61272.81;5228507;28;20036;-75
2022/06/06 06:10:20;;;;;;;16.80;13.63;;;;;;;-150.27;100.00;61272.81;5229342;28;20034;-74
2022/06/06 06:13:14;;;;;;;20.23;15.10;;;;;;;-150.27;100.00;61272.81;5229968;28;20031;-75
2022/06/06 06:15:48;;;;;;;15.23;13.73;;;;;;;-150.27;100.00;61272.81;5229106;28;20095;-75
2022/06/06 06:18:31;;;;;;;13.80;12.30;;;;;;;-150.27;100.00;61272.81;5228071;28;20030;-74
2022/06/06 06:21:30;;;;;;;12.97;10.43;;;;;;;-150.27;100.00;61272.81;5229679;28;20022;-74
2022/06/06 06:24:07;;;;;;;12.60;9.13;;;;;;;-150.27;100.00;61272.81;5228066;28;20488;-75
2022/06/06 06:26:39;;;;;;;14.23;8.07;;;;;;;-150.27;100.00;61272.81;5229786;28;20040;-74
2022/06/06 06:29:11;;;;;;;11.20;6.80;;;;;;;-150.27;100.00;61272.81;5228711;28;20029;-75
2022/06/06 06:32:39;;;;;;;7.37;5.57;;;;;;;-150.27;100.00;61272.81;5228628;28;20034;-75
2022/06/06 06:35:21;;;;;;;8.63;5.03;;;;;;;-150.27;100.00;61272.81;5205599;28;20038;-75
2022/06/06 06:38:17;;;;;;;12.63;6.77;;;;;;;-150.27;100.00;61272.81;5206110;28;20029;-74
2022/06/06 06:41:17;;;;;;;13.17;5.53;;;;;;;-150.27;100.00;61272.81;5219768;28;20037;-75
2022/06/06 06:44:01;;;;;;;6.50;4.40;;;;;;;-150.27;100.00;61272.81;5229528;28;20025;-75
2022/06/06 06:46:47;;;;;;;10.83;4.90;;;;;;;-150.27;100.00;61272.81;5229378;28;20040;-75
2022/06/06 06:49:41;;;;;;;5.83;3.37;;;;;;;-150.27;100.00;61272.81;5228264;28;20061;-74
2022/06/06 06:52:25;;;;;;;9.73;4.00;;;;;;;-150.27;100.00;61272.81;5228982;28;20044;-75
2022/06/06 06:55:03;;;;;;;5.60;3.00;;;;;;;-150.27;100.00;61272.81;5227258;28;20029;-75
2022/06/06 06:57:46;;;;;;;5.03;3.03;;;;;;;-150.27;100.00;61272.81;5229477;28;20431;-75
2022/06/06 07:00:22;;;;;;;3.63;2.60;;;;;;;-150.27;100.00;61272.81;5228574;28;20045;-74
2022/06/06 07:09:32;;;;;;;7.23;2.97;;;;;;;-150.27;100.00;61272.81;5229270;28;20068;-75
2022/06/06 07:12:19;;;;;;;8.57;2.77;;;;;;;-150.27;100.00;61272.81;5228011;28;20018;-75
2022/06/06 07:15:44;;;;;;;6.97;2.10;;;;;;;-150.27;100.00;61272.81;5225946;28;20074;-75
2022/06/06 07:18:18;;;;;;;5.90;2.30;;;;;;;-150.27;100.00;61272.81;5180085;28;20030;-75
2022/06/06 07:20:51;;;;;;;5.83;1.93;;;;;;;-150.27;100.00;61272.81;5225044;28;20741;-75
2022/06/06 07:23:28;;;;;;;3.77;1.70;;;;;;;-150.27;100.00;61272.81;5224785;28;20117;-76
2022/06/06 07:26:03;;;;;;;4.53;1.43;;;;;;;-150.27;100.00;61272.81;5228146;28;20451;-75
2022/06/06 07:28:34;;;;;;;2.47;1.23;;;;;;;-150.27;100.00;61272.81;5228072;28;20025;-74
2022/06/06 07:31:36;;;;;;;4.90;1.30;;;;;;;-150.27;100.00;61272.81;5228472;28;20084;-75
2022/06/06 07:34:41;;;;;;;5.67;1.30;;;;;;;-150.27;100.00;61272.81;5227342;28;20422;-75
2022/06/06 07:37:31;;;;;;;3.72;1.65;;;;;;;-150.27;100.00;61272.81;5227035;28;20098;-76
2022/06/06 07:40:24;;;;;;;3.60;1.67;;;;;;;-150.27;100.00;61272.81;5228147;28;20036;-75
2022/06/06 07:43:04;;;;;;;3.13;1.42;;;;;;;-150.27;100.00;61272.81;5228319;28;20040;-75
2022/06/06 07:45:46;;;;;;;2.92;1.00;;;;;;;-150.27;100.00;61272.81;5231222;28;20792;-75
2022/06/06 07:48:48;;;;;;;5.20;1.05;;;;;;;-150.27;100.00;61272.81;5230777;28;20795;-76
2022/06/06 07:51:44;;;;;;;4.07;1.05;;;;;;;-150.27;100.00;61272.81;5221677;28;20032;-75
2022/06/06 07:54:34;;;;;;;3.10;1.55;;;;;;;-150.27;100.00;61272.81;5234549;28;20565;-75
2022/06/06 07:57:17;;;;;;;2.92;1.00;;;;;;;-150.27;100.00;61272.81;5230781;28;20025;-75
2022/06/06 08:00:07;;;;;;;4.43;0.90;;;;;;;-150.27;100.00;61272.81;5234263;28;20033;-75
2022/06/06 08:02:59;;;;;;;3.30;1.20;;;;;;;-150.27;100.00;61272.81;5232498;28;20013;-76
2022/06/06 08:05:59;;;;;;;5.20;1.20;;;;;;;-150.27;100.00;61272.81;5232741;28;20424;-76
2022/06/06 08:08:46;;;;;;;2.95;1.10;;;;;;;-150.27;100.00;61272.81;5232442;28;20033;-75
2022/06/06 08:11:54;;;;;;;3.28;0.93;;;;;;;-150.27;100.00;61272.81;5231151;28;20036;-76
2022/06/06 08:14:40;;;;;;;3.45;1.00;;;;;;;-150.27;100.00;61272.81;5231882;28;20037;-76
2022/06/06 08:17:35;;;;;;;2.78;1.13;;;;;;;-150.27;100.00;61272.81;5231055;28;20274;-74
2022/06/06 08:20:21;;;;;;;4.97;0.95;;;;;;;-150.27;100.00;61272.81;5230587;28;20472;-74
2022/06/06 08:22:57;;;;;;;3.63;1.15;;;;;;;-150.27;100.00;61272.81;5231046;28;20020;-73
2022/06/06 08:25:32;;;;;;;5.60;1.20;;;;;;;-150.27;100.00;61272.81;5232260;28;20469;-74
2022/06/06 08:28:04;;;;;;;4.20;1.10;;;;;;;-150.27;100.00;61272.81;5230322;28;20648;-74
2022/06/06 08:30:37;;;;;;;2.00;0.80;;;;;;;-150.27;100.00;61272.81;5232407;28;20025;-73
2022/06/06 08:33:08;;;;;;;3.35;0.90;;;;;;;-150.27;100.00;61272.81;5230373;28;20060;-77
2022/06/06 08:35:58;;;;;;;2.97;1.02;;;;;;;-150.27;100.00;61272.81;5232628;28;20513;-73
2022/06/06 08:38:44;;;;;;;2.47;1.00;;;;;;;-150.27;100.00;61272.81;5231789;28;20483;-72
2022/06/06 08:41:41;;;;;;;4.57;1.30;;;;;;;-150.27;100.00;61272.81;5229996;28;20033;-73
2022/06/06 08:44:26;;;;;;;2.03;0.70;;;;;;;-150.27;100.00;61272.81;5231477;28;20834;-74
2022/06/06 08:47:20;;;;;;;2.30;1.20;;;;;;;-150.27;100.00;61272.81;5231008;28;20026;-73
2022/06/06 08:53:14;;;;;;;3.63;1.67;;;;;;;-150.27;100.00;61272.81;5230967;28;20034;-74
2022/06/06 08:55:45;;;;;;;4.13;2.40;;;;;;;-150.27;100.00;61272.81;5231628;28;20476;-74
2022/06/06 08:58:41;;;;;;;3.25;1.65;;;;;;;-150.27;100.00;61272.81;5233637;28;20048;-73
2022/06/06 09:01:46;;;;;;;3.73;1.57;;;;;;;-150.27;100.00;61272.81;5231233;28;20540;-73
2022/06/06 09:04:17;;;;;;;;;;;;;;;-150.27;100.00;61272.81;5229051;28;20049;-75
2022/06/06 09:07:25;;;;;;;5.72;1.50;;;;;;;-150.27;100.00;61272.81;5231109;28;19920;-75
2022/06/06 09:10:35;;;;;;;2.80;1.20;;;;;;;-150.27;100.00;61272.81;5230631;28;20033;-75
2022/06/06 09:13:28;;;;;;;3.33;1.50;;;;;;;-150.27;100.00;61272.81;5230370;28;20098;-75
2022/06/06 09:16:37;;;;;;;3.95;1.20;;;;;;;-150.27;100.00;61272.81;5230446;28;20456;-76
2022/06/06 09:19:23;;;;;;;3.90;1.27;;;;;;;-150.27;100.00;61272.81;5229522;28;20392;-75
2022/06/06 09:22:18;;;;;;;3.88;1.48;;;;;;;-150.27;100.00;61272.81;5231013;28;20057;-73
2022/06/06 09:25:11;;;;;;;2.63;0.90;;;;;;;-150.27;100.00;61272.81;5230407;28;20052;-74
2022/06/06 09:28:16;;;;;;;4.40;1.08;;;;;;;-150.27;100.00;61272.81;5230318;28;20121;-76
2022/06/06 09:31:18;;;;;;;2.87;0.90;;;;;;;-150.27;100.00;61272.81;5230519;28;20034;-76
2022/06/06 09:34:13;;;;;;;2.27;0.80;;;;;;;-150.27;100.00;61272.81;5229519;28;20109;-71
2022/06/06 09:36:44;;;;;;;;;;;;;;;-150.27;100.00;61272.81;5231512;28;20029;-76
2022/06/06 09:39:51;;;;;;;3.25;1.27;;;;;;;-150.27;100.00;61272.81;5228405;28;19935;-74
2022/06/06 09:42:46;;;;;;;5.82;1.25;;;;;;;-150.27;100.00;61272.81;5228314;28;20022;-77
2022/06/06 09:45:31;;;;;;;3.60;0.85;;;;;;;-150.27;100.00;61272.81;5226899;28;20026;-74
2022/06/06 09:48:27;;;;;;;1.40;0.77;;;;;;;-150.27;100.00;61272.81;5229190;28;20117;-79
2022/06/06 09:51:14;;;;;;;2.28;0.85;;;;;;;-150.27;100.00;61272.81;5230085;28;20112;-76
2022/06/06 10:00:10;;;;;;;2.78;0.63;;;;;;;-150.27;100.00;61272.81;5229945;28;20033;-77
2022/06/06 10:03:14;;;;;;;2.33;0.90;;;;;;;-150.27;100.00;61272.81;5228346;28;20293;-76
2022/06/06 10:05:56;;;;;;;5.78;1.20;;;;;;;-150.27;100.00;61272.81;5224799;28;20684;-76
2022/06/06 10:08:58;;;;;;;3.28;1.20;;;;;;;-150.27;100.00;61272.81;5227468;28;20100;-77
2022/06/06 10:12:09;;;;;;;4.07;0.80;;;;;;;-150.27;100.00;61272.81;5229305;28;20061;-77
2022/06/06 10:15:02;;;;;;;1.98;0.90;;;;;;;-150.27;100.00;61272.81;5228433;28;20095;-81
2022/06/06 10:18:01;;;;;;;3.72;1.08;;;;;;;-150.27;100.00;61272.81;5218492;28;20040;-80
2022/06/06 10:20:51;;;;;;;4.85;0.98;;;;;;;-150.27;100.00;61272.81;5229814;28;20037;-82
2022/06/06 10:24:06;;;;;;;1.88;0.80;;;;;;;-150.27;100.00;61272.81;5226343;28;20053;-81
2022/06/06 10:26:56;;;;;;;1.63;0.80;;;;;;;-150.27;100.00;61272.81;5231226;28;20025;-82
2022/06/06 10:32:30;;;;;;;3.50;1.00;;;;;;;-150.27;100.00;61272.81;5246146;28;20037;-80
2022/06/06 10:35:52;;;;;;;2.67;1.10;;;;;;;-150.27;100.00;61272.81;5229645;28;20037;-80
2022/06/06 10:38:44;;;;;;;3.63;1.08;;;;;;;-150.27;100.00;61272.81;5221826;28;20037;-79
2022/06/06 10:41:50;;;;;;;2.90;0.80;;;;;;;-150.27;100.00;61272.81;5234730;28;20070;-77
2022/06/06 10:44:47;;;;;;;3.70;0.70;;;;;;;-150.27;100.00;61272.81;5228836;28;20627;-75
2022/06/06 10:47:39;;;;;;;5.10;0.98;;;;;;;-150.27;100.00;61272.81;5227651;28;20121;-78
2022/06/06 10:51:36;;;;;;;4.20;1.10;;;;;;;-150.27;100.00;61272.81;5208226;28;20488;-77
2022/06/06 10:54:16;;;;;;;2.47;0.80;;;;;;;-150.27;100.00;61272.81;5228117;28;20045;-80
2022/06/06 10:57:31;;;;;;;4.35;0.95;;;;;;;-150.27;100.00;61272.81;5209603;28;20053;-76
2022/06/06 11:00:29;;;;;;;3.53;0.90;;;;;;;-150.27;100.00;61272.81;5201536;28;20057;-76
2022/06/06 11:03:31;;;;;;;3.08;0.90;;;;;;;-150.27;100.00;61272.81;5207258;28;20030;-76
2022/06/06 11:06:22;;;;;;;4.25;0.70;;;;;;;-150.27;100.00;61272.81;5212871;28;20174;-78
2022/06/06 11:09:02;;;;;;;3.65;1.15;;;;;;;-150.27;100.00;61272.81;5229114;28;20045;-77
2022/06/06 11:12:12;;;;;;;4.07;0.80;;;;;;;-150.27;100.00;61272.81;5229135;28;20021;-77
2022/06/06 11:14:44;;;;;;;7.13;0.70;;;;;;;-150.27;100.00;61272.81;5228318;28;20061;-76
2022/06/06 11:17:55;;;;;;;3.65;0.93;;;;;;;;;;5315094;27;20395;-73
2022/06/06 11:20:33;;;;;;;1.80;0.60;;;;;;;;;;5317573;28;20066;-74
2022/06/06 11:23:10;;;;;;;1.88;0.90;;;;;;;;;;5332316;27;20026;-74
2022/06/06 11:25:59;;;;;;;2.85;0.70;;;;;;;;;;5312760;28;20478;-74
2022/06/06 11:28:35;;;;;;;5.90;1.15;;;;;;;;;;5312615;28;20638;-74
2022/06/06 11:31:25;;;;;;;3.50;0.82;;;;;;;;;;5309804;28;20023;-75
2022/06/06 11:34:15;;;;;;;12.73;1.70;;;;;;;;;;5309037;28;20689;-74
2022/06/06 11:37:05;;;;;;;3.95;0.75;;;;;;;;;;5312102;28;20012;-74
2022/06/06 11:39:45;;;;;;;4.13;0.80;;;;;;;;;;5312109;28;20016;-74
2022/06/06 11:42:16;;;;;;;2.67;1.00;;;;;;;;;;5311697;28;20581;-74
2022/06/06 11:45:08;;;;;;;3.50;0.50;;;;;;;;;;5312057;28;20012;-75
2022/06/06 11:47:59;;;;;;;4.13;0.90;;;;;;;;;;5311167;28;20137;-74
2022/06/06 11:50:59;;;;;;;2.78;0.98;;;;;;;;;;5306898;28;20024;-74
2022/06/06 11:53:49;;;;;;;3.08;0.80;;;;;;;;;;5293428;28;20428;-74
2022/06/06 11:56:20;;;;;;;3.58;0.90;;;;;;;;;;5290461;28;20026;-75
2022/06/06 11:59:10;;;;;;;7.07;1.02;;;;;;;;;;5293878;28;20008;-74
2022/06/06 12:02:03;;;;;;;5.60;1.15;;;;;;;;;;5310350;28;20031;-74
2022/06/06 12:04:55;;;;;;;4.93;1.38;;;;;;;;;;5305298;28;20071;-74
2022/06/06 12:07:26;;;;;;;3.47;0.88;;;;;;;;;;5290496;28;20081;-74
2022/06/06 12:10:00;;;;;;;2.64;0.90;;;;;;;;;;5288419;28;20013;-75
2022/06/06 12:12:39;;;;;;;13.80;1.25;;;;;;;;;;5304976;28;20020;-74
2022/06/06 12:15:29;;;;;;;3.83;0.90;;;;;;;;;;5292396;28;20104;-74
2022/06/06 12:18:23;;;;;;;3.92;1.17;;;;;;;;;;5302430;28;20087;-76
2022/06/06 12:21:01;;;;;;;4.63;1.45;;;;;;;;;;5288854;28;20024;-76
2022/06/06 12:23:46;;;;;;;5.72;0.77;;;;;;;;;;5296935;28;20052;-76
2022/06/06 12:26:23;;;;;;;3.45;0.90;;;;;;;;;;5288845;28;20020;-77
2022/06/06 12:29:03;;;;;;;3.00;0.75;;;;;;;;;;5281704;28;20027;-76
2022/06/06 12:31:42;;;;;;;5.20;1.05;;;;;;;;;;5289431;28;20499;-75
2022/06/06 12:34:31;;;;;;;3.33;1.05;;;;;;;;;;5294175;28;20057;-75
2022/06/06 12:37:08;;;;;;;3.30;1.05;;;;;;;;;;5277258;28;20029;-75
2022/06/06 12:39:43;;;;;;;8.18;1.17;;;;;;;;;;5275218;28;20004;-75
2022/06/06 12:42:43;;;;;;;7.00;0.95;;;;;;;;;;5273655;28;20115;-76
2022/06/06 12:45:24;;;;;;;4.78;1.20;;;;;;;;;;5276583;28;20030;-75
2022/06/06 12:48:23;;;;;;;3.70;1.05;;;;;;;;;;5292645;28;20421;-75
2022/06/06 12:50:54;;;;;;;2.72;0.90;;;;;;;;;;5293851;28;20410;-75
2022/06/06 12:53:39;;;;;;;4.07;1.20;;;;;;;;;;5294646;28;20012;-75
2022/06/06 12:56:39;;;;;;;3.55;0.98;;;;;;;;;;5290766;28;20016;-76
2022/06/06 12:59:22;;;;;;;2.67;0.63;;;;;;;;;;5292454;28;20020;-75
2022/06/06 13:01:54;;;;;;;3.72;0.90;;;;;;;;;;5293292;28;20472;-75
2022/06/06 13:04:47;;;;;;;4.88;1.55;;;;;;;;;;5295238;28;20016;-76
2022/06/06 13:07:56;;;;;;;1.80;0.70;;;;;;;;;;5296221;28;20028;-75
2022/06/06 13:10:41;;;;;;;5.53;1.30;;;;;;;;;;5258462;28;20025;-75
2022/06/06 13:13:21;;;;;;;2.80;0.90;;;;;;;;;;5253287;28;20585;-74
2022/06/06 13:15:58;;;;;;;6.17;0.93;;;;;;;;;;5279222;28;20370;-75
2022/06/06 13:18:29;;;;;;;7.93;1.00;;;;;;;;;;5286561;28;20016;-75